createdAt,value
2022-12-14T00:01:36.087Z,100.00
2022-12-14T00:04:02.904Z,100.00
2022-12-14T00:06:32.416Z,100.00
2022-12-14T00:09:01.806Z,100.00
2022-12-14T00:11:29.042Z,100.00
2022-12-14T00:14:01.295Z,100.00
2022-12-14T00:16:31.103Z,100.00
2022-12-14T00:19:00.118Z,100.00
2022-12-14T00:21:28.541Z,100.00
2022-12-14T00:23:57.486Z,100.00
2022-12-14T00:26:27.945Z,100.00
2022-12-14T00:28:55.910Z,100.00
2022-12-14T00:31:24.233Z,100.00
2022-12-14T00:33:51.959Z,100.00
2022-12-14T00:36:19.969Z,100.00
2022-12-14T00:38:46.851Z,100.00
2022-12-14T00:41:14.025Z,100.00
2022-12-14T00:43:41.088Z,100.00
2022-12-14T00:46:08.746Z,100.00
2022-12-14T00:48:35.949Z,100.00
2022-12-14T00:51:04.174Z,100.00
2022-12-14T00:53:31.290Z,100.00
2022-12-14T00:56:05.567Z,100.00
2022-12-14T00:58:32.441Z,100.00
2022-12-14T01:01:06.016Z,100.00
2022-12-14T01:03:33.832Z,100.00
2022-12-14T01:06:01.816Z,100.00
2022-12-14T01:08:36.003Z,100.00
2022-12-14T01:11:08.064Z,100.00
2022-12-14T01:13:36.614Z,100.00
2022-12-14T01:16:04.516Z,100.00
2022-12-14T01:18:34.677Z,100.00
2022-12-14T01:21:13.761Z,100.00
2022-12-14T01:23:40.568Z,100.00
2022-12-14T01:26:07.822Z,100.00
2022-12-14T01:28:35.210Z,100.00
2022-12-14T01:31:14.757Z,100.00
2022-12-14T01:33:42.057Z,100.00
2022-12-14T01:36:12.015Z,100.00
2022-12-14T01:38:39.121Z,100.00
2022-12-14T01:41:07.957Z,100.00
2022-12-14T01:43:55.533Z,100.00
2022-12-14T01:46:26.511Z,100.00
2022-12-14T01:48:59.292Z,100.00
2022-12-14T01:51:27.382Z,100.00
2022-12-14T01:53:56.005Z,100.00
2022-12-14T01:56:22.954Z,100.00
2022-12-14T01:58:50.701Z,100.00
2022-12-14T02:01:17.916Z,100.00
2022-12-14T02:03:50.475Z,100.00
2022-12-14T02:06:22.703Z,100.00
2022-12-14T02:08:52.495Z,100.00
2022-12-14T02:11:30.105Z,100.00
2022-12-14T02:13:56.913Z,100.00
2022-12-14T02:16:24.155Z,100.00
2022-12-14T02:18:50.974Z,100.00
2022-12-14T02:21:29.950Z,100.00
2022-12-14T02:24:28.911Z,100.00
2022-12-14T02:27:23.282Z,100.00
2022-12-14T02:29:52.873Z,100.00
2022-12-14T02:32:34.859Z,100.00
2022-12-14T02:35:15.477Z,100.00
2022-12-14T02:38:20.152Z,100.00
2022-12-14T02:41:18.961Z,100.00
2022-12-14T02:44:07.814Z,100.00
2022-12-14T02:46:59.432Z,100.00
2022-12-14T02:50:00.461Z,100.00
2022-12-14T02:52:48.977Z,100.00
2022-12-14T02:55:34.276Z,100.00
2022-12-14T02:58:03.601Z,100.00
2022-12-14T03:00:34.579Z,100.00
2022-12-14T03:03:02.656Z,100.00
2022-12-14T03:05:30.476Z,100.00
2022-12-14T03:08:16.885Z,100.00
2022-12-14T03:10:57.409Z,100.00
2022-12-14T03:13:43.585Z,100.00
2022-12-14T03:16:25.321Z,100.00
2022-12-14T03:19:00.647Z,100.00
2022-12-14T03:21:36.993Z,100.00
2022-12-14T03:24:12.751Z,100.00
2022-12-14T03:26:47.674Z,100.00
2022-12-14T03:29:21.816Z,100.00
2022-12-14T03:31:57.253Z,100.00
2022-12-14T03:34:34.191Z,100.00
2022-12-14T03:37:14.890Z,100.00
2022-12-14T03:39:43.484Z,100.00
2022-12-14T03:42:10.407Z,100.00
2022-12-14T03:44:48.886Z,100.00
2022-12-14T03:47:29.042Z,100.00
2022-12-14T03:50:01.521Z,100.00
2022-12-14T03:53:01.754Z,100.00
2022-12-14T03:55:48.875Z,100.00
2022-12-14T03:58:37.239Z,100.00
2022-12-14T04:01:13.450Z,100.00
2022-12-14T04:04:13.600Z,100.00
2022-12-14T04:06:52.325Z,100.00
2022-12-14T04:09:28.882Z,100.00
2022-12-14T04:12:25.383Z,100.00
2022-12-14T04:15:15.775Z,100.00
2022-12-14T04:18:03.614Z,100.00
2022-12-14T04:20:43.109Z,100.00
2022-12-14T04:23:42.233Z,100.00
2022-12-14T04:26:15.415Z,100.00
2022-12-14T04:29:10.738Z,100.00
2022-12-14T04:31:41.988Z,100.00
2022-12-14T04:34:14.006Z,100.00
2022-12-14T04:36:43.298Z,100.00
2022-12-14T04:39:17.128Z,100.00
2022-12-14T04:41:49.580Z,100.00
2022-12-14T04:44:28.151Z,100.00
2022-12-14T04:46:58.404Z,100.00
2022-12-14T04:49:32.983Z,100.00
2022-12-14T04:52:11.358Z,100.00
2022-12-14T04:54:41.490Z,100.00
2022-12-14T04:57:29.477Z,100.00
2022-12-14T04:59:57.285Z,100.00
2022-12-14T05:02:38.993Z,100.00
2022-12-14T05:05:20.495Z,100.00
2022-12-14T05:08:09.846Z,100.00
2022-12-14T05:10:44.041Z,100.00
2022-12-14T05:13:20.251Z,100.00
2022-12-14T05:15:51.251Z,100.00
2022-12-14T05:18:18.864Z,100.00
2022-12-14T05:20:48.909Z,100.00
2022-12-14T05:23:16.736Z,100.00
2022-12-14T05:25:43.810Z,100.00
2022-12-14T05:28:11.792Z,100.00
2022-12-14T05:30:39.066Z,100.00
2022-12-14T05:33:06.445Z,100.00
2022-12-14T05:35:33.301Z,100.00
2022-12-14T05:38:00.360Z,100.00
2022-12-14T05:40:27.236Z,100.00
2022-12-14T05:43:04.783Z,100.00
2022-12-14T05:45:31.824Z,100.00
2022-12-14T05:47:59.148Z,100.00
2022-12-14T05:50:26.013Z,100.00
2022-12-14T05:52:53.378Z,100.00
2022-12-14T05:55:20.169Z,100.00
2022-12-14T05:57:47.218Z,100.00
2022-12-14T06:00:14.655Z,100.00
2022-12-14T06:02:41.783Z,100.00
2022-12-14T06:05:09.084Z,100.00
2022-12-14T06:07:36.236Z,100.00
2022-12-14T06:10:03.714Z,100.00
2022-12-14T06:12:30.838Z,100.00
2022-12-14T06:14:57.626Z,100.00
2022-12-14T06:17:24.704Z,100.00
2022-12-14T06:19:51.967Z,100.00
2022-12-14T06:22:19.236Z,100.00
2022-12-14T06:24:46.025Z,100.00
2022-12-14T06:27:13.137Z,100.00
2022-12-14T06:29:39.921Z,100.00
2022-12-14T06:32:07.073Z,100.00
2022-12-14T06:34:38.446Z,100.00
2022-12-14T06:37:07.006Z,100.00
2022-12-14T06:39:33.814Z,100.00
2022-12-14T06:42:00.894Z,100.00
2022-12-14T06:44:27.801Z,100.00
2022-12-14T06:46:55.855Z,100.00
2022-12-14T06:49:22.908Z,100.00
2022-12-14T06:51:50.220Z,100.00
2022-12-14T06:54:17.938Z,100.00
2022-12-14T06:56:46.620Z,100.00
2022-12-14T06:59:14.011Z,100.00
2022-12-14T07:01:41.639Z,100.00
2022-12-14T07:04:09.448Z,100.00
2022-12-14T07:06:39.343Z,100.00
2022-12-14T07:09:09.323Z,100.00
2022-12-14T07:11:36.633Z,100.00
2022-12-14T07:14:06.268Z,100.00
2022-12-14T07:16:34.928Z,100.00
2022-12-14T07:19:01.790Z,100.00
2022-12-14T07:21:29.509Z,100.00
2022-12-14T07:23:56.548Z,100.00
2022-12-14T07:26:26.654Z,100.00
2022-12-14T07:28:55.315Z,100.00
2022-12-14T07:31:25.089Z,100.00
2022-12-14T07:33:56.015Z,100.00
2022-12-14T07:36:24.643Z,100.00
2022-12-14T07:38:52.098Z,100.00
2022-12-14T07:41:29.558Z,100.00
2022-12-14T07:43:57.020Z,100.00
2022-12-14T07:46:26.865Z,100.00
2022-12-14T07:48:56.444Z,100.00
2022-12-14T07:51:33.418Z,100.00
2022-12-14T07:54:01.899Z,100.00
2022-12-14T07:56:29.953Z,100.00
2022-12-14T07:58:58.318Z,100.00
2022-12-14T08:01:31.283Z,100.00
2022-12-14T08:04:00.009Z,100.00
2022-12-14T08:06:30.377Z,100.00
2022-12-14T08:08:58.281Z,100.00
2022-12-14T08:11:25.721Z,100.00
2022-12-14T08:13:57.187Z,100.00
2022-12-14T08:16:25.632Z,100.00
2022-12-14T08:18:54.071Z,100.00
2022-12-14T08:21:22.547Z,100.00
2022-12-14T08:23:50.913Z,100.00
2022-12-14T08:26:19.115Z,100.00
2022-12-14T08:28:47.562Z,100.00
2022-12-14T08:31:15.928Z,100.00
2022-12-14T08:33:43.868Z,100.00
2022-12-14T08:36:25.477Z,100.00
2022-12-14T08:39:00.423Z,100.00
2022-12-14T08:41:28.905Z,100.00
2022-12-14T08:43:58.174Z,99.72
2022-12-14T08:46:27.410Z,99.25
2022-12-14T08:48:55.009Z,99.56
2022-12-14T08:51:23.412Z,99.68
2022-12-14T08:53:50.462Z,99.88
2022-12-14T08:56:19.788Z,100.00
2022-12-14T08:58:46.814Z,99.95
2022-12-14T09:01:16.742Z,99.81
2022-12-14T09:03:45.332Z,98.85
2022-12-14T09:06:24.476Z,98.87
2022-12-14T09:08:51.255Z,98.16
2022-12-14T09:11:21.687Z,97.64
2022-12-14T09:13:48.689Z,97.40
2022-12-14T09:16:21.784Z,96.77
2022-12-14T09:18:49.523Z,95.40
2022-12-14T09:21:18.098Z,91.53
2022-12-14T09:23:45.663Z,91.53
2022-12-14T09:26:18.778Z,91.00
2022-12-14T09:28:50.683Z,90.75
2022-12-14T09:31:20.077Z,90.14
2022-12-14T09:33:46.917Z,89.78
2022-12-14T09:36:19.879Z,89.49
2022-12-14T09:38:51.579Z,91.32
2022-12-14T09:41:35.050Z,88.66
2022-12-14T09:44:24.970Z,90.28
2022-12-14T09:47:01.354Z,91.52
2022-12-14T09:49:34.618Z,91.91
2022-12-14T09:52:05.422Z,91.64
2022-12-14T09:54:38.732Z,91.54
2022-12-14T09:57:18.934Z,91.46
2022-12-14T09:59:45.696Z,90.78
2022-12-14T10:02:34.396Z,90.07
2022-12-14T10:05:17.146Z,90.23
2022-12-14T10:08:03.002Z,88.96
2022-12-14T10:10:44.067Z,88.67
2022-12-14T10:13:49.765Z,87.18
2022-12-14T10:16:27.749Z,85.68
2022-12-14T10:19:12.506Z,84.26
2022-12-14T10:22:16.525Z,77.31
2022-12-14T10:24:51.070Z,76.20
2022-12-14T10:27:22.893Z,73.04
2022-12-14T10:29:59.765Z,75.26
2022-12-14T10:32:37.774Z,78.65
2022-12-14T10:35:56.988Z,79.87
2022-12-14T10:38:56.740Z,78.87
2022-12-14T10:41:23.813Z,77.92
2022-12-14T10:44:03.487Z,76.52
2022-12-14T10:46:58.056Z,75.23
2022-12-14T10:49:32.610Z,76.75
2022-12-14T10:52:12.400Z,76.00
2022-12-14T10:54:46.669Z,76.86
2022-12-14T10:57:27.228Z,77.30
2022-12-14T11:00:09.826Z,78.02
2022-12-14T11:02:42.710Z,78.01
2022-12-14T11:05:36.608Z,77.38
2022-12-14T11:08:09.011Z,76.41
2022-12-14T11:10:39.528Z,77.62
2022-12-14T11:13:12.993Z,77.00
2022-12-14T11:15:45.717Z,77.80
2022-12-14T11:18:15.667Z,78.21
2022-12-14T11:20:56.445Z,78.86
2022-12-14T11:23:35.934Z,79.46
2022-12-14T11:26:07.065Z,79.46
2022-12-14T11:28:41.513Z,78.72
2022-12-14T11:31:13.209Z,78.73
2022-12-14T11:33:43.449Z,79.04
2022-12-14T11:36:24.037Z,79.41
2022-12-14T11:39:01.816Z,79.95
2022-12-14T11:41:40.870Z,79.86
2022-12-14T11:44:16.767Z,78.95
2022-12-14T11:46:58.902Z,79.75
2022-12-14T11:49:35.347Z,80.31
2022-12-14T11:52:09.609Z,80.88
2022-12-14T11:54:39.465Z,82.15
2022-12-14T11:57:12.337Z,82.61
2022-12-14T11:59:45.813Z,83.30
2022-12-14T12:02:22.074Z,83.19
2022-12-14T12:04:57.056Z,83.08
2022-12-14T12:07:29.724Z,82.97
2022-12-14T12:10:02.260Z,83.02
2022-12-14T12:12:29.130Z,83.57
2022-12-14T12:14:57.042Z,82.86
2022-12-14T12:17:39.402Z,80.40
2022-12-14T12:20:19.899Z,81.07
2022-12-14T12:22:51.247Z,80.38
2022-12-14T12:25:27.598Z,82.26
2022-12-14T12:28:28.360Z,83.34
2022-12-14T12:31:07.492Z,85.23
2022-12-14T12:33:46.716Z,86.15
2022-12-14T12:36:23.548Z,87.87
2022-12-14T12:39:07.927Z,88.34
2022-12-14T12:41:47.461Z,89.15
2022-12-14T12:44:49.787Z,90.71
2022-12-14T12:47:29.889Z,91.11
2022-12-14T12:50:06.506Z,91.80
2022-12-14T12:52:50.173Z,92.90
2022-12-14T12:55:19.815Z,93.53
2022-12-14T12:57:51.052Z,93.98
2022-12-14T13:00:25.387Z,94.40
2022-12-14T13:03:02.348Z,95.12
2022-12-14T13:05:47.668Z,95.53
2022-12-14T13:08:21.717Z,96.04
2022-12-14T13:13:44.221Z,97.11
2022-12-14T13:16:20.406Z,97.51
2022-12-14T13:19:04.916Z,97.89
2022-12-14T13:21:49.693Z,97.69
2022-12-14T13:24:20.103Z,97.82
2022-12-14T13:27:25.544Z,98.03
2022-12-14T13:30:00.384Z,98.96
2022-12-14T13:32:48.125Z,99.50
2022-12-14T13:35:46.482Z,99.69
2022-12-14T13:38:33.632Z,99.59
2022-12-14T13:41:27.162Z,99.52
2022-12-14T13:44:31.289Z,99.90
2022-12-14T13:47:06.528Z,99.94
2022-12-14T13:49:33.673Z,99.75
2022-12-14T13:52:01.229Z,99.86
2022-12-14T13:54:37.578Z,99.95
2022-12-14T13:57:09.898Z,99.52
2022-12-14T13:59:48.527Z,98.89
2022-12-14T14:02:28.003Z,98.16
2022-12-14T14:05:18.745Z,98.20
2022-12-14T14:07:57.910Z,98.39
2022-12-14T14:10:29.569Z,98.52
2022-12-14T14:12:56.680Z,99.05
2022-12-14T14:16:26.371Z,99.48
2022-12-14T14:18:52.236Z,99.88
2022-12-14T14:21:20.162Z,100.00
2022-12-14T14:24:01.410Z,100.00
2022-12-14T14:26:29.824Z,100.00
2022-12-14T14:29:10.889Z,100.00
2022-12-14T14:31:51.797Z,100.00
2022-12-14T14:34:41.913Z,100.00
2022-12-14T14:37:20.683Z,100.00
2022-12-14T14:40:33.262Z,100.00
2022-12-14T14:43:08.861Z,100.00
2022-12-14T14:45:58.279Z,100.00
2022-12-14T14:48:30.629Z,100.00
2022-12-14T14:51:14.592Z,100.00
2022-12-14T14:53:41.846Z,100.00
2022-12-14T14:56:30.894Z,100.00
2022-12-14T14:59:16.041Z,100.00
2022-12-14T15:01:50.833Z,100.00
2022-12-14T15:04:24.761Z,100.00
2022-12-14T15:06:58.076Z,100.00
2022-12-14T15:09:33.764Z,100.00
2022-12-14T15:12:08.007Z,100.00
2022-12-14T15:14:48.508Z,100.00
2022-12-14T15:17:18.844Z,100.00
2022-12-14T15:19:49.851Z,100.00
2022-12-14T15:22:22.771Z,100.00
2022-12-14T15:24:53.095Z,100.00
2022-12-14T15:27:22.768Z,100.00
2022-12-14T15:29:51.027Z,100.00
2022-12-14T15:32:22.842Z,100.00
2022-12-14T15:34:56.087Z,100.00
2022-12-14T15:37:53.520Z,100.00
2022-12-14T15:40:30.545Z,100.00
2022-12-14T15:43:15.237Z,100.00
2022-12-14T15:45:44.590Z,100.00
2022-12-14T15:48:21.913Z,100.00
2022-12-14T15:50:54.423Z,100.00
2022-12-14T15:53:52.877Z,100.00
2022-12-14T15:56:30.063Z,100.00
2022-12-14T15:58:59.973Z,100.00
2022-12-14T16:01:38.028Z,100.00
2022-12-14T16:04:09.899Z,100.00
2022-12-14T16:06:42.090Z,100.00
2022-12-14T16:09:26.566Z,100.00
2022-12-14T16:12:04.109Z,100.00
2022-12-14T16:14:44.261Z,100.00
2022-12-14T16:17:33.874Z,100.00
2022-12-14T16:20:09.036Z,100.00
2022-12-14T16:22:39.983Z,100.00
2022-12-14T16:25:10.000Z,100.00
2022-12-14T16:27:42.756Z,100.00
2022-12-14T16:30:19.222Z,100.00
2022-12-14T16:32:50.114Z,100.00
2022-12-14T16:35:19.400Z,100.00
2022-12-14T16:37:51.228Z,100.00
2022-12-14T16:40:35.061Z,100.00
2022-12-14T16:43:04.593Z,100.00
2022-12-14T16:45:45.271Z,100.00
2022-12-14T16:48:22.194Z,100.00
2022-12-14T16:51:02.902Z,100.00
2022-12-14T16:53:34.991Z,100.00
2022-12-14T16:56:04.453Z,100.00
2022-12-14T16:58:31.264Z,100.00
2022-12-14T17:01:06.155Z,100.00
2022-12-14T17:03:34.124Z,100.00
2022-12-14T17:06:07.070Z,100.00
2022-12-14T17:08:34.654Z,100.00
2022-12-14T17:11:02.411Z,100.00
2022-12-14T17:13:29.855Z,100.00
2022-12-14T17:16:06.122Z,100.00
2022-12-14T17:18:37.737Z,100.00
2022-12-14T17:21:06.141Z,100.00
2022-12-14T17:23:35.593Z,100.00
2022-12-14T17:26:02.741Z,100.00
2022-12-14T17:28:31.599Z,100.00
2022-12-14T17:30:59.803Z,100.00
2022-12-14T17:33:28.486Z,100.00
2022-12-14T17:35:56.024Z,100.00
2022-12-14T17:38:23.276Z,100.00
2022-12-14T17:40:51.765Z,100.00
2022-12-14T17:43:21.057Z,100.00
2022-12-14T17:45:48.264Z,100.00
2022-12-14T17:48:16.474Z,100.00
2022-12-14T17:50:47.711Z,100.00
2022-12-14T17:53:16.779Z,100.00
2022-12-14T17:55:44.208Z,100.00
2022-12-14T17:58:11.374Z,100.00
2022-12-14T18:00:58.619Z,100.00
2022-12-14T18:03:26.277Z,100.00
2022-12-14T18:05:53.609Z,100.00
2022-12-14T18:08:22.238Z,100.00
2022-12-14T18:11:15.216Z,100.00
2022-12-14T18:13:43.069Z,100.00
2022-12-14T18:16:15.925Z,100.00
2022-12-14T18:18:43.406Z,100.00
2022-12-14T18:21:22.424Z,100.00
2022-12-14T18:23:50.565Z,100.00
2022-12-14T18:26:22.319Z,100.00
2022-12-14T18:28:50.729Z,100.00
2022-12-14T18:31:24.007Z,100.00
2022-12-14T18:33:50.960Z,100.00
2022-12-14T18:36:21.510Z,100.00
2022-12-14T18:38:51.971Z,100.00
2022-12-14T18:41:23.185Z,100.00
2022-12-14T18:43:50.577Z,100.00
2022-12-14T18:46:18.116Z,100.00
2022-12-14T18:48:45.188Z,100.00
2022-12-14T18:51:15.545Z,100.00
2022-12-14T18:53:43.255Z,100.00
2022-12-14T18:56:12.400Z,100.00
2022-12-14T18:58:42.070Z,100.00
2022-12-14T19:01:15.092Z,100.00
2022-12-14T19:03:43.551Z,100.00
2022-12-14T19:09:09.280Z,100.00
2022-12-14T19:11:41.852Z,100.00
2022-12-14T19:14:09.702Z,100.00
2022-12-14T19:16:37.068Z,100.00
2022-12-14T19:19:03.940Z,100.00
2022-12-14T19:21:31.648Z,100.00
2022-12-14T19:24:01.825Z,100.00
2022-12-14T19:26:29.339Z,100.00
2022-12-14T19:28:56.910Z,100.00
2022-12-14T19:31:24.014Z,100.00
2022-12-14T19:33:50.907Z,100.00
2022-12-14T19:36:18.022Z,100.00
2022-12-14T19:38:45.076Z,100.00
2022-12-14T19:41:20.168Z,100.00
2022-12-14T19:43:47.570Z,100.00
2022-12-14T19:46:16.439Z,100.00
2022-12-14T19:48:44.459Z,100.00
2022-12-14T19:51:13.119Z,100.00
2022-12-14T19:53:42.648Z,100.00
2022-12-14T19:56:10.949Z,100.00
2022-12-14T19:58:37.732Z,100.00
2022-12-14T20:01:09.086Z,100.00
2022-12-14T20:03:37.405Z,100.00
2022-12-14T20:06:06.157Z,100.00
2022-12-14T20:08:34.183Z,100.00
2022-12-14T20:11:06.327Z,100.00
2022-12-14T20:13:33.909Z,100.00
2022-12-14T20:16:02.181Z,100.00
2022-12-14T20:18:30.765Z,100.00
2022-12-14T20:21:05.631Z,100.00
2022-12-14T20:23:35.371Z,100.00
2022-12-14T20:26:04.530Z,100.00
2022-12-14T20:28:31.676Z,100.00
2022-12-14T20:30:58.958Z,100.00
2022-12-14T20:33:30.117Z,100.00
2022-12-14T20:35:58.220Z,100.00
2022-12-14T20:38:25.573Z,100.00
2022-12-14T20:40:52.896Z,100.00
2022-12-14T20:43:19.939Z,100.00
2022-12-14T20:45:47.186Z,100.00
2022-12-14T20:48:14.011Z,100.00
2022-12-14T20:50:43.126Z,100.00
2022-12-14T20:53:09.980Z,100.00
2022-12-14T20:55:37.358Z,100.00
2022-12-14T20:58:04.163Z,100.00
2022-12-14T21:00:31.404Z,100.00
2022-12-14T21:02:58.467Z,100.00
2022-12-14T21:05:25.852Z,100.00
2022-12-14T21:07:52.637Z,100.00
2022-12-14T21:10:19.802Z,100.00
2022-12-14T21:12:49.865Z,100.00
2022-12-14T21:15:17.062Z,100.00
2022-12-14T21:17:43.804Z,100.00
2022-12-14T21:20:12.772Z,100.00
2022-12-14T21:22:39.591Z,100.00
2022-12-14T21:25:07.746Z,100.00
2022-12-14T21:27:38.481Z,100.00
2022-12-14T21:30:08.438Z,100.00
2022-12-14T21:32:37.243Z,100.00
2022-12-14T21:35:04.909Z,100.00
2022-12-14T21:37:31.712Z,100.00
2022-12-14T21:39:58.818Z,100.00
2022-12-14T21:42:26.608Z,100.00
2022-12-14T21:44:54.370Z,100.00
2022-12-14T21:47:24.364Z,100.00
2022-12-14T21:49:51.463Z,100.00
2022-12-14T21:52:20.813Z,100.00
2022-12-14T21:54:47.916Z,100.00
2022-12-14T21:57:34.902Z,100.00
2022-12-14T22:00:02.602Z,100.00
2022-12-14T22:02:29.834Z,100.00
2022-12-14T22:04:57.305Z,100.00
2022-12-14T22:07:29.516Z,100.00
2022-12-14T22:09:56.650Z,100.00
2022-12-14T22:12:23.505Z,100.00
2022-12-14T22:14:51.088Z,100.00
2022-12-14T22:17:18.153Z,100.00
2022-12-14T22:19:45.412Z,100.00
2022-12-14T22:22:16.802Z,100.00
2022-12-14T22:24:47.440Z,100.00
2022-12-14T22:27:15.016Z,100.00
2022-12-14T22:29:42.141Z,100.00
2022-12-14T22:32:11.785Z,100.00
2022-12-14T22:34:39.057Z,100.00
2022-12-14T22:37:06.119Z,100.00
2022-12-14T22:39:33.368Z,100.00
2022-12-14T22:42:00.410Z,100.00
2022-12-14T22:44:27.511Z,100.00
2022-12-14T22:46:54.353Z,100.00
2022-12-14T22:49:21.618Z,100.00
2022-12-14T22:51:48.426Z,100.00
2022-12-14T22:54:20.944Z,100.00
2022-12-14T22:56:56.018Z,100.00
2022-12-14T22:59:34.030Z,100.00
2022-12-14T23:02:01.128Z,100.00
2022-12-14T23:04:28.549Z,100.00
2022-12-14T23:06:55.643Z,100.00
2022-12-14T23:09:41.396Z,100.00
2022-12-14T23:12:26.528Z,100.00
2022-12-14T23:15:12.268Z,100.00
2022-12-14T23:17:57.490Z,100.00
2022-12-14T23:20:43.389Z,100.00
2022-12-14T23:23:29.266Z,100.00
2022-12-14T23:26:20.323Z,100.00
2022-12-14T23:29:05.606Z,100.00
2022-12-14T23:31:51.893Z,100.00
2022-12-14T23:34:37.264Z,100.00
2022-12-14T23:37:23.235Z,100.00
2022-12-14T23:40:08.661Z,100.00
2022-12-14T23:42:54.084Z,100.00
2022-12-14T23:45:39.613Z,100.00
2022-12-14T23:48:25.607Z,100.00
2022-12-14T23:51:10.763Z,100.00
2022-12-14T23:53:56.427Z,100.00
2022-12-14T23:56:41.697Z,100.00
2022-12-14T23:59:31.921Z,100.00
